Time;durP1;ratioP1;P1;durP2;ratioP2;P2;SDS_P1;SDS_P2;PMS_P1;PMS_P2;Temp;Humidity;BMP_temperature;BMP_pressure;BME280_temperature;BME280_humidity;BME280_pressure;Samples;Min_cycle;Max_cycle;Signal;HPM_P1;HPM_P2
2022/12/28 00:02:14;;;;;;;8.20;2.83;;;;;;;;;;5012475;28;20237;-66
2022/12/28 00:04:39;;;;;;;7.63;2.80;;;;;;;;;;5011816;28;20223;-66
2022/12/28 00:07:04;;;;;;;6.73;2.67;;;;;;;;;;5012615;28;20208;-66
2022/12/28 00:09:29;;;;;;;6.53;2.47;;;;;;;;;;5012704;28;20224;-66
2022/12/28 00:11:55;;;;;;;8.63;2.80;;;;;;;;;;5011999;28;20221;-66
2022/12/28 00:14:20;;;;;;;7.73;2.80;;;;;;;;;;5012096;28;20224;-66
2022/12/28 00:16:45;;;;;;;10.87;2.63;;;;;;;;;;5012858;28;20212;-66
2022/12/28 00:19:12;;;;;;;10.80;2.70;;;;;;;;;;5011358;28;20247;-66
2022/12/28 00:21:37;;;;;;;8.77;2.60;;;;;;;;;;5012722;28;20212;-66
2022/12/28 00:24:02;;;;;;;7.23;2.60;;;;;;;;;;5012017;28;20303;-66
2022/12/28 00:26:29;;;;;;;9.13;2.83;;;;;;;;;;5012223;28;20220;-66
2022/12/28 00:28:54;;;;;;;7.87;2.93;;;;;;;;;;5012479;28;20254;-66
2022/12/28 00:31:19;;;;;;;6.87;2.80;;;;;;;;;;5012111;28;20232;-66
2022/12/28 00:33:44;;;;;;;9.00;3.00;;;;;;;;;;5011592;28;20245;-66
2022/12/28 00:36:10;;;;;;;11.00;2.40;;;;;;;;;;5012032;28;20216;-66
2022/12/28 00:38:37;;;;;;;7.87;2.67;;;;;;;;;;5010665;28;20581;-66
2022/12/28 00:41:03;;;;;;;9.90;2.70;;;;;;;;;;5012054;28;20209;-66
2022/12/28 00:43:28;;;;;;;8.40;2.57;;;;;;;;;;5012527;28;20212;-66
2022/12/28 00:45:53;;;;;;;6.80;2.60;;;;;;;;;;5011754;28;20227;-66
2022/12/28 00:48:19;;;;;;;7.67;2.47;;;;;;;;;;5013026;28;20583;-66
2022/12/28 00:50:44;;;;;;;10.60;3.23;;;;;;;;;;5015982;28;20220;-66
2022/12/28 00:53:09;;;;;;;6.07;2.57;;;;;;;;;;5015104;28;20227;-66
2022/12/28 00:55:35;;;;;;;6.13;2.30;;;;;;;;;;5016292;28;20282;-66
2022/12/28 00:58:00;;;;;;;7.67;2.97;;;;;;;;;;5016420;28;20212;-66
2022/12/28 01:00:25;;;;;;;8.73;2.93;;;;;;;;;;5014814;28;20231;-66
2022/12/28 01:02:51;;;;;;;8.77;2.80;;;;;;;;;;5014856;28;20200;-66
2022/12/28 01:05:16;;;;;;;7.53;2.87;;;;;;;;;;5015347;28;20216;-66
2022/12/28 01:07:41;;;;;;;6.73;2.50;;;;;;;;;;5015414;28;20200;-68
2022/12/28 01:10:07;;;;;;;6.90;2.40;;;;;;;;;;4994524;28;20879;-66
2022/12/28 01:12:32;;;;;;;7.27;2.53;;;;;;;;;;5001674;28;20279;-66
2022/12/28 01:14:57;;;;;;;6.37;2.27;;;;;;;;;;5003852;28;20213;-66
2022/12/28 01:17:23;;;;;;;6.27;2.40;;;;;;;;;;5003096;28;20232;-66
2022/12/28 01:19:48;;;;;;;8.50;2.83;;;;;;;;;;4986893;28;20708;-67
2022/12/28 01:22:13;;;;;;;10.97;2.70;;;;;;;;;;4985383;28;20221;-66
2022/12/28 01:24:38;;;;;;;7.43;2.80;;;;;;;;;;4982544;28;20420;-66
2022/12/28 01:27:04;;;;;;;7.30;2.60;;;;;;;;;;4986376;28;20222;-67
2022/12/28 01:29:29;;;;;;;7.37;2.70;;;;;;;;;;4978128;28;20217;-67
2022/12/28 01:31:54;;;;;;;6.20;2.87;;;;;;;;;;4982477;28;20766;-67
2022/12/28 01:34:20;;;;;;;6.03;2.67;;;;;;;;;;4985925;28;20240;-66
2022/12/28 01:36:45;;;;;;;8.50;2.77;;;;;;;;;;4986583;28;20304;-67
2022/12/28 01:39:10;;;;;;;9.37;3.60;;;;;;;;;;5001128;28;20220;-67
2022/12/28 01:41:36;;;;;;;9.33;3.10;;;;;;;;;;4991739;28;20687;-67
2022/12/28 01:44:01;;;;;;;7.20;2.80;;;;;;;;;;4985078;28;20300;-67
2022/12/28 01:46:28;;;;;;;6.40;2.90;;;;;;;;;;4984337;28;20660;-67
2022/12/28 01:48:54;;;;;;;7.57;3.30;;;;;;;;;;4977815;28;20699;-67
2022/12/28 01:51:19;;;;;;;5.70;3.03;;;;;;;;;;4977758;28;20396;-66
2022/12/28 01:53:45;;;;;;;6.33;3.00;;;;;;;;;;4980753;28;20671;-66
2022/12/28 01:56:10;;;;;;;8.17;2.90;;;;;;;;;;4985177;28;20228;-66
2022/12/28 01:58:35;;;;;;;7.37;3.20;;;;;;;;;;4986531;28;20638;-66
2022/12/28 02:01:01;;;;;;;8.50;3.27;;;;;;;;;;4999672;28;20213;-67
2022/12/28 02:03:26;;;;;;;6.93;3.17;;;;;;;;;;5000097;28;20631;-68
2022/12/28 02:05:52;;;;;;;7.23;3.00;;;;;;;;;;5000707;28;20205;-67
2022/12/28 02:08:21;;;;;;;6.67;3.17;;;;;;;;;;5004353;28;20209;-67
2022/12/28 02:10:46;;;;;;;6.77;3.00;;;;;;;;;;4996213;28;20228;-67
2022/12/28 02:13:13;;;;;;;6.27;2.73;;;;;;;;;;4996447;28;20215;-67
2022/12/28 02:15:38;;;;;;;7.37;2.60;;;;;;;;;;4997381;28;20331;-67
2022/12/28 02:18:03;;;;;;;7.13;3.00;;;;;;;;;;4992497;28;20312;-67
2022/12/28 02:20:30;;;;;;;7.47;3.50;;;;;;;;;;4985686;28;20585;-67
2022/12/28 02:22:57;;;;;;;4.80;2.80;;;;;;;;;;5000054;28;20213;-67
2022/12/28 02:25:41;;;;;;;9.73;3.00;;;;;;;;;;4984418;28;20268;-67
2022/12/28 02:28:06;;;;;;;7.23;3.13;;;;;;;;;;5008060;28;20211;-67
2022/12/28 02:30:32;;;;;;;8.77;2.67;;;;;;;;;;4985343;28;20221;-66
2022/12/28 02:32:59;;;;;;;5.23;2.50;;;;;;;;;;5012374;28;20204;-67
2022/12/28 02:35:28;;;;;;;7.73;3.53;;;;;;;;;;4994688;28;20413;-67
2022/12/28 02:37:59;;;;;;;6.47;3.37;;;;;;;;;;4995024;28;20215;-67
2022/12/28 02:40:28;;;;;;;5.97;3.03;;;;;;;;;;4999960;28;20550;-67
2022/12/28 02:42:53;;;;;;;5.40;2.60;;;;;;;;;;5004151;28;20219;-67
2022/12/28 02:51:07;;;;;;;6.90;2.60;;;;;;;;;;5003967;28;20281;-67
2022/12/28 02:53:36;;;;;;;6.20;2.27;;;;;;;;;;5003385;28;20208;-67
2022/12/28 02:56:10;;;;;;;5.90;2.42;;;;;;;;;;4995088;28;20359;-67
2022/12/28 02:58:46;;;;;;;6.07;2.40;;;;;;;;;;4994604;28;20213;-65
2022/12/28 03:01:23;;;;;;;7.30;2.60;;;;;;;;;;4993780;28;20689;-65
2022/12/28 03:03:54;;;;;;;10.67;2.80;;;;;;;;;;5002795;28;20223;-65
2022/12/28 03:09:16;;;;;;;6.30;2.47;;;;;;;;;;5004052;28;20244;-65
2022/12/28 03:11:43;;;;;;;6.43;3.10;;;;;;;;;;5001781;28;20316;-65
2022/12/28 03:14:09;;;;;;;7.23;3.20;;;;;;;;;;5002897;28;20636;-65
2022/12/28 03:25:41;;;;;;;8.77;3.87;;;;;;;;;;5003130;28;20679;-66
2022/12/28 03:33:02;;;;;;;7.63;3.20;;;;;;;;;;4983072;28;20216;-66
2022/12/28 03:35:32;;;;;;;9.50;3.47;;;;;;;;;;4984021;28;20585;-66
2022/12/28 03:37:59;;;;;;;7.13;3.27;;;;;;;;;;5018384;28;20209;-66
2022/12/28 03:40:28;;;;;;;9.70;3.23;;;;;;;;;;4996369;28;20212;-66
2022/12/28 03:45:47;;;;;;;7.43;3.70;;;;;;;;;;4995299;28;20291;-66
2022/12/28 03:48:12;;;;;;;8.67;3.70;;;;;;;;;;5000676;28;20223;-66
2022/12/28 03:50:38;;;;;;;6.60;3.57;;;;;;;;;;5002850;28;20228;-66
2022/12/28 03:53:03;;;;;;;6.50;3.57;;;;;;;;;;5001765;28;20299;-66
2022/12/28 03:55:28;;;;;;;6.77;3.20;;;;;;;;;;5001090;28;20675;-66
2022/12/28 03:57:54;;;;;;;6.27;2.97;;;;;;;;;;5003365;28;20215;-66
2022/12/28 04:00:19;;;;;;;6.70;3.50;;;;;;;;;;5002634;28;20725;-66
2022/12/28 04:02:45;;;;;;;7.60;3.80;;;;;;;;;;4999059;28;20295;-66
2022/12/28 04:05:10;;;;;;;7.77;3.70;;;;;;;;;;4994651;28;20724;-66
2022/12/28 04:07:35;;;;;;;5.97;3.50;;;;;;;;;;4975960;28;20209;-66
2022/12/28 04:10:01;;;;;;;7.70;3.83;;;;;;;;;;4979510;28;20582;-66
2022/12/28 04:12:26;;;;;;;6.38;3.60;;;;;;;;;;5001572;28;20274;-66
2022/12/28 04:14:51;;;;;;;7.37;3.60;;;;;;;;;;5012678;28;20216;-66
2022/12/28 04:17:16;;;;;;;7.80;3.60;;;;;;;;;;5011685;28;20224;-66
2022/12/28 04:19:42;;;;;;;6.37;3.40;;;;;;;;;;5012577;28;20224;-66
2022/12/28 04:22:07;;;;;;;7.77;4.00;;;;;;;;;;5012317;28;20592;-66
2022/12/28 04:24:32;;;;;;;6.75;4.07;;;;;;;;;;5011361;28;20242;-66
2022/12/28 04:26:57;;;;;;;6.77;3.87;;;;;;;;;;5014630;28;20211;-66
2022/12/28 04:29:23;;;;;;;7.80;3.80;;;;;;;;;;5014427;28;20240;-66
2022/12/28 04:31:48;;;;;;;7.53;3.87;;;;;;;;;;5011899;28;20224;-66
2022/12/28 04:34:13;;;;;;;6.07;4.10;;;;;;;;;;5011880;28;20286;-66
2022/12/28 04:36:38;;;;;;;6.13;4.10;;;;;;;;;;5012744;28;20212;-66
2022/12/28 04:39:04;;;;;;;7.87;4.17;;;;;;;;;;5011478;28;20216;-66
2022/12/28 04:41:29;;;;;;;8.03;4.80;;;;;;;;;;4999648;28;20209;-67
2022/12/28 04:43:55;;;;;;;7.37;4.27;;;;;;;;;;4992910;28;20215;-67
2022/12/28 04:46:20;;;;;;;9.17;4.40;;;;;;;;;;4991554;28;20661;-66
2022/12/28 04:48:45;;;;;;;9.53;4.57;;;;;;;;;;4992959;28;20581;-66
2022/12/28 04:51:18;;;;;;;8.10;4.33;;;;;;;;;;5007044;28;20229;-66
2022/12/28 04:53:44;;;;;;;7.37;4.07;;;;;;;;;;4992195;28;20223;-66
2022/12/28 04:56:09;;;;;;;6.67;4.20;;;;;;;;;;5005054;28;20208;-66
2022/12/28 04:58:34;;;;;;;8.55;4.63;;;;;;;;;;5012538;28;20236;-66
2022/12/28 05:01:02;;;;;;;6.77;3.90;;;;;;;;;;5011748;28;20213;-66
2022/12/28 05:03:27;;;;;;;7.43;4.53;;;;;;;;;;5012195;28;20684;-66
2022/12/28 05:05:52;;;;;;;6.97;3.90;;;;;;;;;;5011234;28;20247;-66
2022/12/28 05:08:17;;;;;;;6.57;4.13;;;;;;;;;;5012234;28;20248;-66
2022/12/28 05:10:43;;;;;;;6.90;4.13;;;;;;;;;;5011964;28;20212;-66
2022/12/28 05:13:08;;;;;;;8.93;4.10;;;;;;;;;;5010736;28;20656;-66
2022/12/28 05:15:33;;;;;;;7.97;4.23;;;;;;;;;;5011963;28;20208;-66
2022/12/28 05:17:58;;;;;;;8.47;4.37;;;;;;;;;;5012075;28;20221;-66
2022/12/28 05:20:24;;;;;;;6.53;4.00;;;;;;;;;;5010668;28;20673;-66
2022/12/28 05:22:49;;;;;;;8.03;4.23;;;;;;;;;;5011859;28;20212;-66
2022/12/28 05:25:14;;;;;;;8.40;3.90;;;;;;;;;;5011719;28;20635;-66
2022/12/28 05:27:39;;;;;;;9.00;4.20;;;;;;;;;;5011169;28;20216;-66
2022/12/28 05:30:05;;;;;;;6.23;4.07;;;;;;;;;;5011801;28;20625;-66
2022/12/28 05:32:30;;;;;;;8.10;4.00;;;;;;;;;;5011936;28;20219;-66
2022/12/28 05:34:56;;;;;;;7.97;4.07;;;;;;;;;;5011586;28;20285;-66
2022/12/28 05:37:21;;;;;;;8.73;4.17;;;;;;;;;;5014819;28;20216;-66
2022/12/28 05:39:46;;;;;;;7.77;4.20;;;;;;;;;;5015561;28;20208;-66
2022/12/28 05:42:11;;;;;;;7.27;4.23;;;;;;;;;;5013843;28;20300;-66
2022/12/28 05:44:37;;;;;;;8.87;4.33;;;;;;;;;;5015484;28;20224;-66
2022/12/28 05:47:02;;;;;;;7.53;4.40;;;;;;;;;;5014932;28;20295;-66
2022/12/28 05:49:27;;;;;;;7.97;4.27;;;;;;;;;;5014626;28;20213;-66
2022/12/28 05:51:52;;;;;;;7.87;4.53;;;;;;;;;;5015094;28;20595;-66
2022/12/28 05:54:18;;;;;;;7.87;4.27;;;;;;;;;;5014968;28;20212;-66
2022/12/28 05:56:43;;;;;;;6.93;4.07;;;;;;;;;;5014354;28;20290;-66
2022/12/28 05:59:08;;;;;;;7.57;4.10;;;;;;;;;;5014850;28;20572;-66
2022/12/28 06:01:35;;;;;;;8.10;4.30;;;;;;;;;;5015163;28;20295;-66
2022/12/28 06:04:01;;;;;;;7.87;4.20;;;;;;;;;;5014072;28;20208;-66
2022/12/28 06:06:26;;;;;;;7.33;4.20;;;;;;;;;;5012920;28;20304;-66
2022/12/28 06:08:51;;;;;;;8.02;3.72;;;;;;;;;;4987504;28;20217;-66
2022/12/28 06:11:18;;;;;;;7.07;3.83;;;;;;;;;;4984948;28;20243;-66
2022/12/28 06:13:43;;;;;;;6.67;3.70;;;;;;;;;;4986132;28;20727;-66
2022/12/28 06:16:10;;;;;;;5.87;3.40;;;;;;;;;;4984906;28;20317;-66
2022/12/28 06:18:35;;;;;;;6.53;3.83;;;;;;;;;;4985903;28;20213;-66
2022/12/28 06:21:07;;;;;;;6.83;3.70;;;;;;;;;;4985007;28;20798;-66
2022/12/28 06:23:32;;;;;;;6.87;3.53;;;;;;;;;;4977364;28;20308;-66
2022/12/28 06:25:58;;;;;;;7.93;3.10;;;;;;;;;;4977711;28;21692;-66
2022/12/28 06:28:24;;;;;;;6.63;3.30;;;;;;;;;;4977060;28;20227;-67
2022/12/28 06:30:49;;;;;;;5.47;3.40;;;;;;;;;;4984526;28;20237;-66
2022/12/28 06:33:14;;;;;;;5.60;3.00;;;;;;;;;;4984921;28;20240;-66
2022/12/28 06:35:40;;;;;;;5.73;3.10;;;;;;;;;;4985424;28;20213;-66
2022/12/28 06:38:05;;;;;;;6.20;3.30;;;;;;;;;;4984055;28;20677;-66
2022/12/28 06:40:30;;;;;;;8.70;3.30;;;;;;;;;;4985241;28;20205;-67
2022/12/28 06:42:55;;;;;;;7.93;3.07;;;;;;;;;;4985141;28;20212;-66
2022/12/28 06:45:21;;;;;;;5.67;3.00;;;;;;;;;;4987732;28;20560;-67
2022/12/28 06:47:46;;;;;;;6.63;3.03;;;;;;;;;;5011827;28;20217;-65
2022/12/28 06:50:11;;;;;;;4.17;2.90;;;;;;;;;;5013648;28;20268;-66
2022/12/28 06:52:36;;;;;;;6.43;3.90;;;;;;;;;;5012309;28;20442;-66
2022/12/28 06:55:02;;;;;;;7.13;3.93;;;;;;;;;;5011650;28;20431;-65
2022/12/28 06:57:27;;;;;;;6.03;3.00;;;;;;;;;;5013207;28;20216;-66
2022/12/28 06:59:53;;;;;;;6.20;3.20;;;;;;;;;;5012454;28;20253;-67
2022/12/28 07:02:18;;;;;;;6.53;3.07;;;;;;;;;;5012871;28;20207;-67
2022/12/28 07:04:43;;;;;;;5.63;3.20;;;;;;;;;;5013392;28;20211;-67
2022/12/28 07:07:09;;;;;;;4.57;3.00;;;;;;;;;;5012246;28;20208;-67
2022/12/28 07:09:34;;;;;;;6.27;2.97;;;;;;;;;;5012975;28;20559;-67
2022/12/28 07:11:59;;;;;;;5.23;2.80;;;;;;;;;;5013462;28;20209;-67
2022/12/28 07:14:24;;;;;;;6.28;2.92;;;;;;;;;;5011868;28;20736;-65
2022/12/28 07:16:50;;;;;;;6.10;3.23;;;;;;;;;;5012577;28;20419;-67
2022/12/28 07:19:15;;;;;;;5.67;2.93;;;;;;;;;;5012624;28;21032;-67
2022/12/28 07:21:40;;;;;;;4.57;2.63;;;;;;;;;;5013749;28;20200;-67
2022/12/28 07:24:06;;;;;;;4.87;2.70;;;;;;;;;;5011963;28;20216;-67
2022/12/28 07:26:32;;;;;;;8.73;2.67;;;;;;;;;;5012279;28;20655;-67
2022/12/28 07:28:57;;;;;;;4.40;2.80;;;;;;;;;;5012830;28;20196;-68
2022/12/28 07:31:24;;;;;;;4.17;2.77;;;;;;;;;;5012457;28;20220;-67
2022/12/28 07:33:50;;;;;;;5.82;2.78;;;;;;;;;;5009290;28;20308;-68
2022/12/28 07:36:16;;;;;;;5.15;2.92;;;;;;;;;;5012500;28;20263;-67
2022/12/28 07:38:42;;;;;;;5.55;2.53;;;;;;;;;;5012641;28;20663;-68
2022/12/28 07:41:09;;;;;;;4.80;2.90;;;;;;;;;;5010887;28;20279;-66
2022/12/28 07:43:34;;;;;;;5.60;3.13;;;;;;;;;;5012630;28;20200;-67
2022/12/28 07:46:00;;;;;;;6.88;2.70;;;;;;;;;;5011976;28;20296;-68
2022/12/28 07:48:27;;;;;;;5.07;2.80;;;;;;;;;;5011511;28;20291;-67
2022/12/28 07:50:52;;;;;;;5.18;2.90;;;;;;;;;;5012312;28;20231;-67
2022/12/28 07:53:17;;;;;;;7.50;3.20;;;;;;;;;;5011809;28;20283;-68
2022/12/28 07:55:42;;;;;;;5.67;2.67;;;;;;;;;;5011615;28;21392;-68
2022/12/28 07:58:08;;;;;;;5.80;3.03;;;;;;;;;;5011044;28;20212;-67
2022/12/28 08:00:33;;;;;;;6.17;3.00;;;;;;;;;;5012257;28;20204;-67
2022/12/28 08:02:58;;;;;;;5.60;3.23;;;;;;;;;;5011723;28;20216;-68
2022/12/28 08:05:23;;;;;;;6.73;3.40;;;;;;;;;;5011463;28;20221;-67
2022/12/28 08:07:49;;;;;;;4.07;2.73;;;;;;;;;;5009035;28;20655;-68
2022/12/28 08:10:14;;;;;;;5.37;2.73;;;;;;;;;;5010614;28;20310;-69
2022/12/28 08:12:39;;;;;;;6.17;2.67;;;;;;;;;;5012868;28;20219;-69
2022/12/28 08:15:05;;;;;;;4.33;2.60;;;;;;;;;;5012001;28;20252;-69
2022/12/28 08:17:30;;;;;;;6.43;2.77;;;;;;;;;;5012244;28;20308;-69
2022/12/28 08:19:56;;;;;;;5.77;2.60;;;;;;;;;;5012647;28;20209;-68
2022/12/28 08:22:22;;;;;;;5.70;2.83;;;;;;;;;;5012031;28;20216;-67
2022/12/28 08:24:47;;;;;;;6.47;3.20;;;;;;;;;;5011710;28;20623;-68
2022/12/28 08:27:12;;;;;;;6.13;3.10;;;;;;;;;;5011936;28;20765;-68
2022/12/28 08:29:37;;;;;;;7.18;3.50;;;;;;;;;;5012610;28;20216;-69
2022/12/28 08:32:03;;;;;;;5.80;2.85;;;;;;;;;;5011130;28;20208;-70
2022/12/28 08:34:28;;;;;;;9.27;3.60;;;;;;;;;;5008999;28;20270;-69
2022/12/28 08:36:54;;;;;;;5.87;3.07;;;;;;;;;;5008707;28;20291;-67
2022/12/28 08:39:19;;;;;;;6.30;3.57;;;;;;;;;;5011387;28;20208;-69
2022/12/28 08:41:44;;;;;;;8.53;3.37;;;;;;;;;;5013724;28;20216;-69
2022/12/28 08:44:09;;;;;;;7.93;4.20;;;;;;;;;;5011169;28;20818;-68
2022/12/28 08:46:35;;;;;;;6.30;3.60;;;;;;;;;;5012232;28;20209;-68
2022/12/28 08:49:00;;;;;;;7.53;3.30;;;;;;;;;;5010602;28;20746;-67
2022/12/28 08:51:27;;;;;;;5.43;3.00;;;;;;;;;;5010822;28;20271;-68
2022/12/28 08:53:52;;;;;;;5.67;3.30;;;;;;;;;;5011878;28;20212;-69
2022/12/28 08:56:19;;;;;;;5.47;3.07;;;;;;;;;;5008446;28;20703;-70
2022/12/28 08:58:45;;;;;;;5.67;3.50;;;;;;;;;;5010072;28;20672;-70
2022/12/28 09:01:11;;;;;;;5.67;3.50;;;;;;;;;;5011107;28;20266;-69
2022/12/28 09:03:37;;;;;;;5.80;2.70;;;;;;;;;;5011779;28;20208;-68
2022/12/28 09:06:06;;;;;;;6.73;2.80;;;;;;;;;;5004052;28;20220;-68
2022/12/28 09:08:31;;;;;;;5.63;2.63;;;;;;;;;;4992700;28;20201;-69
2022/12/28 09:10:58;;;;;;;6.18;3.75;;;;;;;;;;4995853;28;20217;-69
2022/12/28 09:13:23;;;;;;;6.70;2.90;;;;;;;;;;4994952;28;20236;-67
2022/12/28 09:16:04;;;;;;;5.10;2.60;;;;;;;;;;4996337;28;20688;-69
2022/12/28 09:18:29;;;;;;;5.27;2.67;;;;;;;;;;4995833;28;20279;-69
2022/12/28 09:20:55;;;;;;;5.10;2.57;;;;;;;;;;4995360;28;20699;-70
2022/12/28 09:23:20;;;;;;;6.50;2.50;;;;;;;;;;4995691;28;20216;-69
2022/12/28 09:25:45;;;;;;;4.40;2.40;;;;;;;;;;4996146;28;20691;-69
2022/12/28 09:28:10;;;;;;;4.43;2.73;;;;;;;;;;5012022;28;20243;-69
2022/12/28 09:30:36;;;;;;;5.20;2.63;;;;;;;;;;5015718;28;20217;-70
2022/12/28 09:35:45;;;;;;;4.47;2.20;;;;;;;;;;5015358;28;20239;-68
2022/12/28 09:38:10;;;;;;;5.47;2.53;;;;;;;;;;5014070;28;20262;-69
2022/12/28 09:40:36;;;;;;;5.45;2.40;;;;;;;;;;5014440;28;20212;-68
2022/12/28 09:43:01;;;;;;;6.10;2.67;;;;;;;;;;5014593;28;20246;-69
2022/12/28 09:45:26;;;;;;;7.37;2.70;;;;;;;;;;5014745;28;20219;-69
2022/12/28 09:47:54;;;;;;;7.05;2.90;;;;;;;;;;5013744;28;20208;-69
2022/12/28 09:50:27;;;;;;;8.27;3.07;;;;;;;;;;5014366;28;20228;-70
2022/12/28 09:53:04;;;;;;;5.40;3.60;;;;;;;;;;5014523;28;20236;-69
2022/12/28 09:55:30;;;;;;;6.82;3.03;;;;;;;;;;5013711;28;20235;-69
2022/12/28 09:57:56;;;;;;;11.95;3.63;;;;;;;;;;5006354;28;20358;-69
2022/12/28 10:00:22;;;;;;;5.33;3.10;;;;;;;;;;5014257;28;20727;-69
2022/12/28 10:02:48;;;;;;;5.85;3.03;;;;;;;;;;5013490;28;20258;-69
2022/12/28 10:05:14;;;;;;;6.13;3.30;;;;;;;;;;5014046;28;20219;-70
2022/12/28 10:07:39;;;;;;;10.40;4.10;;;;;;;;;;5011885;28;20299;-70
2022/12/28 10:10:04;;;;;;;7.50;3.10;;;;;;;;;;5013216;28;20244;-69
2022/12/28 10:12:30;;;;;;;7.53;2.97;;;;;;;;;;5013813;28;20216;-69
2022/12/28 10:14:55;;;;;;;7.50;3.28;;;;;;;;;;5014288;28;20200;-70
2022/12/28 10:17:22;;;;;;;7.57;3.33;;;;;;;;;;5013036;28;20675;-69
2022/12/28 10:19:48;;;;;;;5.27;2.87;;;;;;;;;;5014306;28;20215;-69
2022/12/28 10:22:15;;;;;;;7.57;3.60;;;;;;;;;;5012328;28;20675;-69
2022/12/28 10:24:41;;;;;;;5.53;3.10;;;;;;;;;;5002411;28;20205;-69
2022/12/28 10:27:07;;;;;;;5.53;2.80;;;;;;;;;;5013492;28;20266;-69
2022/12/28 10:29:32;;;;;;;5.93;3.37;;;;;;;;;;5008539;28;20215;-69
2022/12/28 10:32:02;;;;;;;6.13;3.00;;;;;;;;;;4989537;28;20217;-71
2022/12/28 10:34:27;;;;;;;4.90;3.20;;;;;;;;;;5003854;28;20231;-69
2022/12/28 10:36:53;;;;;;;7.13;3.70;;;;;;;;;;5012542;28;20427;-67
2022/12/28 10:39:23;;;;;;;4.95;2.90;;;;;;;;;;5011926;28;20244;-69
2022/12/28 10:41:48;;;;;;;7.20;2.40;;;;;;;;;;5002368;28;20231;-67
2022/12/28 10:44:18;;;;;;;7.27;3.30;;;;;;;;;;5010975;28;20434;-66
2022/12/28 10:46:57;;;;;;;5.75;2.35;;;;;;;;;;5012007;28;20270;-69
2022/12/28 10:49:23;;;;;;;7.17;2.23;;;;;;;;;;5011632;28;20612;-66
2022/12/28 10:51:57;;;;;;;6.32;2.88;;;;;;;;;;5010064;28;20500;-69
2022/12/28 10:54:23;;;;;;;4.85;2.10;;;;;;;;;;5011629;28;20232;-67
2022/12/28 10:56:49;;;;;;;8.38;4.10;;;;;;;;;;5013251;28;20296;-68
2022/12/28 10:59:21;;;;;;;6.93;2.20;;;;;;;;;;5011799;28;20219;-68
2022/12/28 11:01:47;;;;;;;3.93;1.90;;;;;;;;;;5011584;28;20219;-70
2022/12/28 11:04:19;;;;;;;4.68;2.03;;;;;;;;;;5011704;28;20225;-68
2022/12/28 11:06:55;;;;;;;3.60;2.10;;;;;;;;;;5010412;28;21705;-67
2022/12/28 11:09:22;;;;;;;4.65;2.10;;;;;;;;;;5011752;28;21853;-68
2022/12/28 11:11:48;;;;;;;4.53;2.00;;;;;;;;;;5010340;28;20636;-68
2022/12/28 11:14:17;;;;;;;6.57;1.80;;;;;;;;;;5012389;28;20208;-68
2022/12/28 11:16:43;;;;;;;3.67;1.80;;;;;;;;;;5012929;28;20686;-68
2022/12/28 11:19:09;;;;;;;4.82;1.85;;;;;;;;;;5011670;28;20267;-67
2022/12/28 11:21:34;;;;;;;4.32;2.08;;;;;;;;;;5012993;28;20683;-67
2022/12/28 11:23:59;;;;;;;3.28;1.60;;;;;;;;;;5011343;28;20244;-67
2022/12/28 11:26:26;;;;;;;2.40;1.50;;;;;;;;;;5010662;28;20227;-68
2022/12/28 11:28:52;;;;;;;3.38;1.58;;;;;;;;;;5012738;28;20208;-68
2022/12/28 11:31:25;;;;;;;4.80;1.60;;;;;;;;;;5012131;28;20310;-68
2022/12/28 11:33:52;;;;;;;3.60;1.73;;;;;;;;;;5010726;28;20224;-68
2022/12/28 11:36:19;;;;;;;1.87;1.47;;;;;;;;;;5011061;28;20231;-68
2022/12/28 11:38:45;;;;;;;3.92;1.67;;;;;;;;;;5011471;28;20204;-68
2022/12/28 11:41:11;;;;;;;2.20;1.52;;;;;;;;;;5011359;28;20262;-68
2022/12/28 11:43:39;;;;;;;3.50;1.50;;;;;;;;;;5012262;28;20208;-68
2022/12/28 11:46:27;;;;;;;2.70;1.60;;;;;;;;;;5011745;28;20687;-68
2022/12/28 11:48:54;;;;;;;2.72;1.30;;;;;;;;;;5011686;28;20296;-68
2022/12/28 11:51:21;;;;;;;3.40;1.27;;;;;;;;;;5011883;28;20224;-68
2022/12/28 11:53:48;;;;;;;2.72;1.40;;;;;;;;;;5011508;28;20235;-68
2022/12/28 11:56:15;;;;;;;2.63;1.17;;;;;;;;;;5010643;28;20609;-68
2022/12/28 11:58:41;;;;;;;3.33;1.50;;;;;;;;;;4991698;28;20727;-68
2022/12/28 12:01:08;;;;;;;2.67;1.37;;;;;;;;;;4991007;28;20307;-68
2022/12/28 12:03:51;;;;;;;3.42;1.65;;;;;;;;;;5010957;28;20215;-68
2022/12/28 12:06:17;;;;;;;2.90;1.20;;;;;;;;;;5011758;28;20220;-68
2022/12/28 12:08:42;;;;;;;3.13;1.20;;;;;;;;;;5011483;28;20208;-68
2022/12/28 12:11:17;;;;;;;1.93;1.20;;;;;;;;;;5010500;28;20235;-68
2022/12/28 12:13:43;;;;;;;2.37;1.10;;;;;;;;;;5011929;28;20212;-68
2022/12/28 12:16:22;;;;;;;2.97;1.40;;;;;;;;;;5009429;28;20305;-68
2022/12/28 12:18:49;;;;;;;2.28;1.20;;;;;;;;;;5010834;28;20212;-68
2022/12/28 12:21:20;;;;;;;2.15;1.13;;;;;;;;;;5010229;28;20767;-68
2022/12/28 12:23:47;;;;;;;1.40;1.13;;;;;;;;;;5009931;28;20219;-68
2022/12/28 12:26:15;;;;;;;3.13;1.40;;;;;;;;;;5011469;28;20219;-68
2022/12/28 12:28:43;;;;;;;2.10;1.03;;;;;;;;;;5010802;28;20671;-68
2022/12/28 12:31:10;;;;;;;2.60;1.15;;;;;;;;;;5009008;28;20275;-68
2022/12/28 12:33:36;;;;;;;3.87;1.37;;;;;;;;;;4993993;28;20236;-68
2022/12/28 12:36:09;;;;;;;4.60;1.25;;;;;;;;;;5009252;28;20359;-68
2022/12/28 12:38:41;;;;;;;4.23;1.30;;;;;;;;;;5012023;28;20659;-68
2022/12/28 12:41:16;;;;;;;3.15;1.40;;;;;;;;;;5001850;28;20209;-68
2022/12/28 12:43:44;;;;;;;1.98;1.17;;;;;;;;;;4991310;28;20204;-68
2022/12/28 12:46:26;;;;;;;3.47;1.45;;;;;;;;;;5005801;28;20249;-68
2022/12/28 12:49:11;;;;;;;4.37;1.63;;;;;;;;;;5015849;28;20219;-68
2022/12/28 12:51:44;;;;;;;2.80;1.27;;;;;;;;;;5013714;28;20224;-67
2022/12/28 12:54:27;;;;;;;4.63;2.00;;;;;;;;;;4999613;28;20227;-69
2022/12/28 12:56:55;;;;;;;3.53;1.73;;;;;;;;;;5014542;28;20733;-68
2022/12/28 12:59:27;;;;;;;5.00;1.60;;;;;;;;;;5013047;28;20224;-68
2022/12/28 13:02:11;;;;;;;6.00;1.58;;;;;;;;;;5013673;28;20235;-69
2022/12/28 13:04:36;;;;;;;6.57;1.93;;;;;;;;;;5014339;28;20208;-69
2022/12/28 13:07:02;;;;;;;6.65;1.95;;;;;;;;;;5013365;28;20572;-70
2022/12/28 13:09:28;;;;;;;5.17;1.70;;;;;;;;;;5014344;28;20359;-68
2022/12/28 13:11:54;;;;;;;5.37;2.10;;;;;;;;;;5029425;28;20782;-68
2022/12/28 13:14:20;;;;;;;5.20;1.85;;;;;;;;;;5014526;28;20300;-67
2022/12/28 13:16:46;;;;;;;7.57;2.00;;;;;;;;;;5015150;28;20228;-68
2022/12/28 13:19:15;;;;;;;5.00;1.87;;;;;;;;;;5014204;28;20204;-67
2022/12/28 13:21:41;;;;;;;6.90;2.10;;;;;;;;;;5013955;28;20219;-67
2022/12/28 13:24:17;;;;;;;7.32;1.73;;;;;;;;;;5014732;28;20346;-67
2022/12/28 13:26:43;;;;;;;5.15;1.60;;;;;;;;;;5014272;28;20293;-68
2022/12/28 13:29:08;;;;;;;6.80;2.15;;;;;;;;;;5014407;28;20367;-67
2022/12/28 13:31:34;;;;;;;5.57;1.90;;;;;;;;;;5014915;28;20246;-67
2022/12/28 13:34:01;;;;;;;6.45;2.30;;;;;;;;;;5012902;28;20626;-68
2022/12/28 13:36:26;;;;;;;8.73;2.13;;;;;;;;;;5014656;28;20219;-67
2022/12/28 13:38:59;;;;;;;7.30;1.97;;;;;;;;;;5013663;28;20208;-69
2022/12/28 13:41:24;;;;;;;8.70;2.22;;;;;;;;;;5013528;28;20230;-66
2022/12/28 13:43:59;;;;;;;6.43;2.17;;;;;;;;;;5011583;28;20742;-67
2022/12/28 13:46:25;;;;;;;5.07;2.07;;;;;;;;;;5012708;28;20206;-66
2022/12/28 13:48:51;;;;;;;7.73;2.77;;;;;;;;;;5015587;28;20208;-66
2022/12/28 13:51:16;;;;;;;6.78;2.50;;;;;;;;;;5014896;28;20271;-66
2022/12/28 13:53:42;;;;;;;6.63;2.50;;;;;;;;;;5013037;28;20659;-67
2022/12/28 13:56:07;;;;;;;6.75;2.35;;;;;;;;;;5013324;28;20219;-66
2022/12/28 13:58:34;;;;;;;6.97;1.77;;;;;;;;;;4995193;28;20216;-67
2022/12/28 14:01:02;;;;;;;9.27;2.78;;;;;;;;;;4994668;28;20581;-66
2022/12/28 14:03:28;;;;;;;5.90;2.25;;;;;;;;;;4994992;28;20676;-67
2022/12/28 14:05:54;;;;;;;6.78;2.10;;;;;;;;;;4999599;28;20222;-66
2022/12/28 14:08:19;;;;;;;5.73;2.07;;;;;;;;;;5012277;28;20269;-66
2022/12/28 14:10:44;;;;;;;7.17;2.20;;;;;;;;;;5013684;28;20607;-66
2022/12/28 14:13:09;;;;;;;7.88;1.90;;;;;;;;;;5014225;28;20251;-66
2022/12/28 14:15:35;;;;;;;7.33;2.17;;;;;;;;;;5014008;28;20208;-66
2022/12/28 14:18:00;;;;;;;5.68;2.20;;;;;;;;;;5014725;28;20204;-67
2022/12/28 14:20:25;;;;;;;7.43;2.10;;;;;;;;;;5014470;28;20216;-67
2022/12/28 14:22:51;;;;;;;7.40;2.20;;;;;;;;;;5013717;28;20303;-67
2022/12/28 14:25:17;;;;;;;6.32;1.92;;;;;;;;;;5012834;28;20220;-67
2022/12/28 14:27:42;;;;;;;6.85;2.05;;;;;;;;;;5013153;28;20216;-67
2022/12/28 14:30:20;;;;;;;10.45;2.38;;;;;;;;;;5013429;28;20224;-67
2022/12/28 14:32:45;;;;;;;9.25;2.17;;;;;;;;;;5013214;28;20223;-67
2022/12/28 14:35:14;;;;;;;7.20;1.85;;;;;;;;;;5013676;28;20221;-67
2022/12/28 14:37:39;;;;;;;8.18;2.25;;;;;;;;;;5012386;28;20404;-66
2022/12/28 14:40:05;;;;;;;7.60;2.05;;;;;;;;;;5013949;28;20227;-67
2022/12/28 14:42:30;;;;;;;6.63;1.80;;;;;;;;;;4992575;28;20217;-67
2022/12/28 14:44:57;;;;;;;7.70;1.88;;;;;;;;;;4994676;28;20213;-67
2022/12/28 14:47:41;;;;;;;11.02;3.50;;;;;;;;;;4992587;28;20268;-68
2022/12/28 14:50:15;;;;;;;7.63;1.60;;;;;;;;;;4991991;28;20225;-68
2022/12/28 14:52:42;;;;;;;6.05;1.75;;;;;;;;;;4993340;28;20212;-68
2022/12/28 14:55:25;;;;;;;6.72;1.80;;;;;;;;;;4998493;28;20212;-68
2022/12/28 14:57:51;;;;;;;6.47;1.80;;;;;;;;;;5002127;28;20629;-68
2022/12/28 15:00:24;;;;;;;5.93;1.55;;;;;;;;;;4999449;28;20213;-68
2022/12/28 15:02:49;;;;;;;4.35;1.58;;;;;;;;;;5000056;28;20555;-68
2022/12/28 15:05:34;;;;;;;5.57;1.75;;;;;;;;;;5002320;28;20227;-68
2022/12/28 15:07:59;;;;;;;5.00;1.80;;;;;;;;;;5007561;28;20682;-68
2022/12/28 15:10:24;;;;;;;5.03;1.42;;;;;;;;;;5007091;28;20654;-68